sensor_id;sensor_type;location;lat;lon;timestamp;pressure;altitude;pressure_sealevel;temperature;humidity
43621;BME280;29213;50.770;7.298;2022-07-29T00:02:07;100741.22;;;17.06;49.04
43621;BME280;29213;50.770;7.298;2022-07-29T00:04:36;100759.03;;;17.20;49.08
43621;BME280;29213;50.770;7.298;2022-07-29T00:07:03;100751.97;;;17.13;49.37
43621;BME280;29213;50.770;7.298;2022-07-29T00:09:28;100760.25;;;17.18;49.03
43621;BME280;29213;50.770;7.298;2022-07-29T00:11:55;100722.53;;;16.91;49.23
43621;BME280;29213;50.770;7.298;2022-07-29T00:14:22;100669.06;;;16.61;48.98
43621;BME280;29213;50.770;7.298;2022-07-29T00:16:47;100417.56;;;15.00;48.85
43621;BME280;29213;50.770;7.298;2022-07-29T00:19:13;100594.47;;;16.14;49.46
43621;BME280;29213;50.770;7.298;2022-07-29T00:21:38;100737.06;;;17.03;49.52
43621;BME280;29213;50.770;7.298;2022-07-29T00:24:04;100750.31;;;17.12;49.46
43621;BME280;29213;50.770;7.298;2022-07-29T00:26:29;100731.03;;;17.01;49.36
43621;BME280;29213;50.770;7.298;2022-07-29T00:29:01;100746.81;;;17.11;49.77
43621;BME280;29213;50.770;7.298;2022-07-29T00:31:26;100751.34;;;17.11;49.77
43621;BME280;29213;50.770;7.298;2022-07-29T00:33:52;100672.13;;;16.58;49.74
43621;BME280;29213;50.770;7.298;2022-07-29T00:36:17;100553.41;;;15.78;49.88
43621;BME280;29213;50.770;7.298;2022-07-29T00:38:43;100675.50;;;16.66;49.80
43621;BME280;29213;50.770;7.298;2022-07-29T00:41:11;100696.81;;;16.75;49.67
43621;BME280;29213;50.770;7.298;2022-07-29T00:43:37;100714.41;;;16.77;49.84
43621;BME280;29213;50.770;7.298;2022-07-29T00:46:02;100644.56;;;16.35;50.04
43621;BME280;29213;50.770;7.298;2022-07-29T00:48:27;100699.28;;;16.69;49.89
43621;BME280;29213;50.770;7.298;2022-07-29T00:50:53;100682.06;;;16.57;49.95
43621;BME280;29213;50.770;7.298;2022-07-29T00:53:19;100729.13;;;16.88;49.92
43621;BME280;29213;50.770;7.298;2022-07-29T00:55:45;100704.25;;;16.73;50.27
43621;BME280;29213;50.770;7.298;2022-07-29T00:58:12;100744.69;;;16.93;50.48
43621;BME280;29213;50.770;7.298;2022-07-29T01:00:37;100707.94;;;16.72;50.51
43621;BME280;29213;50.770;7.298;2022-07-29T01:03:06;100680.19;;;16.58;50.63
43621;BME280;29213;50.770;7.298;2022-07-29T01:05:31;100707.34;;;16.69;50.83
43621;BME280;29213;50.770;7.298;2022-07-29T01:07:57;100547.19;;;15.77;50.43
43621;BME280;29213;50.770;7.298;2022-07-29T01:10:24;100728.06;;;16.82;50.66
43621;BME280;29213;50.770;7.298;2022-07-29T01:12:52;100720.00;;;16.82;50.82
43621;BME280;29213;50.770;7.298;2022-07-29T01:15:18;100703.41;;;16.72;50.46
43621;BME280;29213;50.770;7.298;2022-07-29T01:21:23;100642.53;;;16.44;50.64
43621;BME280;29213;50.770;7.298;2022-07-29T01:34:04;100690.59;;;16.74;50.95
43621;BME280;29213;50.770;7.298;2022-07-29T01:36:46;100687.09;;;16.74;51.04
43621;BME280;29213;50.770;7.298;2022-07-29T01:39:21;100679.84;;;16.67;51.03
43621;BME280;29213;50.770;7.298;2022-07-29T01:42:21;100679.84;;;16.67;50.74
43621;BME280;29213;50.770;7.298;2022-07-29T01:44:57;100646.69;;;16.47;50.93
43621;BME280;29213;50.770;7.298;2022-07-29T01:47:29;100639.44;;;16.47;51.17
43621;BME280;29213;50.770;7.298;2022-07-29T01:49:58;100683.13;;;16.69;51.12
43621;BME280;29213;50.770;7.298;2022-07-29T01:52:34;100680.44;;;16.69;51.13
43621;BME280;29213;50.770;7.298;2022-07-29T01:55:06;100681.06;;;16.65;51.02
43621;BME280;29213;50.770;7.298;2022-07-29T01:57:33;100677.72;;;16.63;50.92
43621;BME280;29213;50.770;7.298;2022-07-29T02:00:03;100603.78;;;16.18;51.16
43621;BME280;29213;50.770;7.298;2022-07-29T02:02:30;100674.44;;;16.61;51.23
43621;BME280;29213;50.770;7.298;2022-07-29T02:04:57;100593.59;;;16.07;51.39
43621;BME280;29213;50.770;7.298;2022-07-29T02:07:25;100593.59;;;16.07;51.21
43621;BME280;29213;50.770;7.298;2022-07-29T02:09:53;100621.59;;;16.26;51.29
43621;BME280;29213;50.770;7.298;2022-07-29T02:12:20;100683.31;;;16.54;51.32
43621;BME280;29213;50.770;7.298;2022-07-29T02:14:53;100671.94;;;16.52;51.74
43621;BME280;29213;50.770;7.298;2022-07-29T02:17:25;100621.13;;;16.15;51.25
43621;BME280;29213;50.770;7.298;2022-07-29T02:19:53;100615.97;;;16.14;51.44
43621;BME280;29213;50.770;7.298;2022-07-29T02:22:20;100678.53;;;16.50;51.06
43621;BME280;29213;50.770;7.298;2022-07-29T02:24:48;100599.59;;;16.02;51.15
43621;BME280;29213;50.770;7.298;2022-07-29T02:27:17;100612.63;;;16.12;51.42
43621;BME280;29213;50.770;7.298;2022-07-29T02:29:45;100617.19;;;16.11;51.30
43621;BME280;29213;50.770;7.298;2022-07-29T02:32:13;100589.19;;;15.92;51.31
43621;BME280;29213;50.770;7.298;2022-07-29T02:34:41;100538.41;;;15.55;51.29
43621;BME280;29213;50.770;7.298;2022-07-29T02:37:11;100660.06;;;16.33;51.37
43621;BME280;29213;50.770;7.298;2022-07-29T02:39:40;100635.78;;;16.13;51.23
43621;BME280;29213;50.770;7.298;2022-07-29T02:42:08;100378.84;;;14.45;51.26
43621;BME280;29213;50.770;7.298;2022-07-29T02:44:35;100599.91;;;15.85;51.52
43621;BME280;29213;50.770;7.298;2022-07-29T02:47:17;100562.34;;;15.57;51.59
43621;BME280;29213;50.770;7.298;2022-07-29T02:50:33;100664.34;;;16.14;51.65
43621;BME280;29213;50.770;7.298;2022-07-29T02:52:58;100660.38;;;16.10;51.66
43621;BME280;29213;50.770;7.298;2022-07-29T02:55:35;100594.00;;;15.61;51.91
43621;BME280;29213;50.770;7.298;2022-07-29T02:58:03;100669.22;;;16.03;51.77
43621;BME280;29213;50.770;7.298;2022-07-29T03:00:32;100662.31;;;15.94;52.00
43621;BME280;29213;50.770;7.298;2022-07-29T03:03:03;100561.56;;;15.28;52.23
43621;BME280;29213;50.770;7.298;2022-07-29T03:05:30;100673.25;;;15.93;51.86
43621;BME280;29213;50.770;7.298;2022-07-29T03:08:00;100562.94;;;15.17;51.94
43621;BME280;29213;50.770;7.298;2022-07-29T03:10:27;100676.94;;;15.85;52.15
43621;BME280;29213;50.770;7.298;2022-07-29T03:12:54;100678.56;;;15.79;52.66
43621;BME280;29213;50.770;7.298;2022-07-29T03:15:20;100575.47;;;15.09;52.64
43621;BME280;29213;50.770;7.298;2022-07-29T03:17:47;100618.84;;;15.42;52.59
43621;BME280;29213;50.770;7.298;2022-07-29T03:20:14;100620.28;;;15.38;52.64
43621;BME280;29213;50.770;7.298;2022-07-29T03:22:41;100669.22;;;15.68;52.62
43621;BME280;29213;50.770;7.298;2022-07-29T03:25:15;100670.22;;;15.67;52.70
43621;BME280;29213;50.770;7.298;2022-07-29T03:27:43;100539.19;;;14.92;52.68
43621;BME280;29213;50.770;7.298;2022-07-29T03:30:09;100657.81;;;15.66;52.72
43621;BME280;29213;50.770;7.298;2022-07-29T03:32:36;100605.16;;;15.36;52.61
43621;BME280;29213;50.770;7.298;2022-07-29T03:35:02;100636.22;;;15.46;52.42
43621;BME280;29213;50.770;7.298;2022-07-29T03:37:27;100607.16;;;15.28;52.63
43621;BME280;29213;50.770;7.298;2022-07-29T03:39:56;100578.16;;;15.09;52.60
43621;BME280;29213;50.770;7.298;2022-07-29T03:42:24;100672.22;;;15.58;52.49
43621;BME280;29213;50.770;7.298;2022-07-29T03:44:52;100674.88;;;15.52;52.19
43621;BME280;29213;50.770;7.298;2022-07-29T03:47:20;100662.13;;;15.32;52.24
43621;BME280;29213;50.770;7.298;2022-07-29T03:49:50;100626.91;;;14.98;52.54
43621;BME280;29213;50.770;7.298;2022-07-29T03:52:16;100684.25;;;15.41;52.32
43621;BME280;29213;50.770;7.298;2022-07-29T03:54:42;100667.53;;;15.39;52.37
43621;BME280;29213;50.770;7.298;2022-07-29T03:57:10;100682.88;;;15.45;52.70
43621;BME280;29213;50.770;7.298;2022-07-29T03:59:36;100656.31;;;15.28;52.46
43621;BME280;29213;50.770;7.298;2022-07-29T04:02:04;100620.06;;;15.11;52.75
43621;BME280;29213;50.770;7.298;2022-07-29T04:04:34;100687.06;;;15.54;53.00
43621;BME280;29213;50.770;7.298;2022-07-29T04:06:59;100693.69;;;15.58;53.15
43621;BME280;29213;50.770;7.298;2022-07-29T04:09:25;100690.63;;;15.61;53.03
43621;BME280;29213;50.770;7.298;2022-07-29T04:11:50;100665.91;;;15.44;53.22
43621;BME280;29213;50.770;7.298;2022-07-29T04:14:16;100622.03;;;15.23;53.03
43621;BME280;29213;50.770;7.298;2022-07-29T04:16:42;100656.28;;;15.50;53.31
43621;BME280;29213;50.770;7.298;2022-07-29T04:19:07;100659.75;;;15.44;53.41
43621;BME280;29213;50.770;7.298;2022-07-29T04:21:40;100698.09;;;15.66;53.44
43621;BME280;29213;50.770;7.298;2022-07-29T04:24:05;100699.38;;;15.70;53.11
43621;BME280;29213;50.770;7.298;2022-07-29T04:26:31;100689.78;;;15.61;53.15
43621;BME280;29213;50.770;7.298;2022-07-29T04:28:56;100664.44;;;15.42;53.25
43621;BME280;29213;50.770;7.298;2022-07-29T04:31:22;100667.78;;;15.44;53.53
43621;BME280;29213;50.770;7.298;2022-07-29T04:33:47;100658.28;;;15.41;53.45
43621;BME280;29213;50.770;7.298;2022-07-29T04:36:12;100717.56;;;15.75;53.08
43621;BME280;29213;50.770;7.298;2022-07-29T04:38:38;100667.38;;;15.47;53.17
43621;BME280;29213;50.770;7.298;2022-07-29T04:41:04;100640.59;;;15.25;52.69
43621;BME280;29213;50.770;7.298;2022-07-29T04:43:30;100708.88;;;15.73;52.98
43621;BME280;29213;50.770;7.298;2022-07-29T04:45:56;100665.47;;;15.41;53.25
43621;BME280;29213;50.770;7.298;2022-07-29T04:48:21;100717.38;;;15.76;53.20
43621;BME280;29213;50.770;7.298;2022-07-29T04:50:47;100676.91;;;15.49;52.95
43621;BME280;29213;50.770;7.298;2022-07-29T04:53:12;100693.50;;;15.60;53.12
43621;BME280;29213;50.770;7.298;2022-07-29T04:55:37;100692.91;;;15.65;53.04
43621;BME280;29213;50.770;7.298;2022-07-29T04:58:03;100707.41;;;15.70;53.10
43621;BME280;29213;50.770;7.298;2022-07-29T05:00:28;100676.09;;;15.49;52.91
43621;BME280;29213;50.770;7.298;2022-07-29T05:02:53;100561.56;;;14.77;52.94
43621;BME280;29213;50.770;7.298;2022-07-29T05:05:19;100724.03;;;15.81;53.09
43621;BME280;29213;50.770;7.298;2022-07-29T05:07:44;100721.53;;;15.79;52.97
43621;BME280;29213;50.770;7.298;2022-07-29T05:10:10;100731.03;;;15.82;52.97
43621;BME280;29213;50.770;7.298;2022-07-29T05:12:36;100729.19;;;15.82;52.99
43621;BME280;29213;50.770;7.298;2022-07-29T05:15:02;100686.47;;;15.59;52.91
43621;BME280;29213;50.770;7.298;2022-07-29T05:17:28;100660.91;;;15.34;53.20
43621;BME280;29213;50.770;7.298;2022-07-29T05:19:53;100675.69;;;15.52;52.58
43621;BME280;29213;50.770;7.298;2022-07-29T05:22:19;100739.41;;;15.94;52.52
43621;BME280;29213;50.770;7.298;2022-07-29T05:24:44;100675.06;;;15.50;52.64
43621;BME280;29213;50.770;7.298;2022-07-29T05:27:09;100740.31;;;16.01;52.89
43621;BME280;29213;50.770;7.298;2022-07-29T05:29:35;100740.53;;;16.06;52.65
43621;BME280;29213;50.770;7.298;2022-07-29T05:32:01;100570.69;;;15.05;52.65
43621;BME280;29213;50.770;7.298;2022-07-29T05:34:26;100690.16;;;15.80;52.49
43621;BME280;29213;50.770;7.298;2022-07-29T05:36:52;100598.16;;;15.35;52.30
43621;BME280;29213;50.770;7.298;2022-07-29T05:39:17;100660.78;;;15.78;52.34
43621;BME280;29213;50.770;7.298;2022-07-29T05:41:43;100726.03;;;16.36;51.90
43621;BME280;29213;50.770;7.298;2022-07-29T05:44:08;100747.22;;;16.52;51.93
43621;BME280;29213;50.770;7.298;2022-07-29T05:46:33;100760.41;;;16.54;51.67
43621;BME280;29213;50.770;7.298;2022-07-29T05:48:59;100743.50;;;16.60;51.46
43621;BME280;29213;50.770;7.298;2022-07-29T05:51:24;100681.13;;;16.23;51.28
43621;BME280;29213;50.770;7.298;2022-07-29T05:53:49;100740.59;;;16.62;51.73
43621;BME280;29213;50.770;7.298;2022-07-29T05:56:15;100752.00;;;16.70;51.50
43621;BME280;29213;50.770;7.298;2022-07-29T05:58:41;100777.56;;;16.88;51.44
43621;BME280;29213;50.770;7.298;2022-07-29T06:01:06;100729.44;;;16.58;51.76
43621;BME280;29213;50.770;7.298;2022-07-29T06:03:31;100719.47;;;16.52;51.84
43621;BME280;29213;50.770;7.298;2022-07-29T06:05:57;100760.16;;;16.84;51.51
43621;BME280;29213;50.770;7.298;2022-07-29T06:08:22;100690.69;;;16.39;51.60
43621;BME280;29213;50.770;7.298;2022-07-29T06:10:48;100757.63;;;16.76;49.93
43621;BME280;29213;50.770;7.298;2022-07-29T06:13:14;100781.25;;;16.80;48.34
43621;BME280;29213;50.770;7.298;2022-07-29T06:15:41;100811.31;;;16.98;48.89
43621;BME280;29213;50.770;7.298;2022-07-29T06:18:07;100766.34;;;16.78;49.15
43621;BME280;29213;50.770;7.298;2022-07-29T06:20:34;100809.69;;;17.10;48.97
43621;BME280;29213;50.770;7.298;2022-07-29T06:23:00;100761.38;;;16.81;49.61
43621;BME280;29213;50.770;7.298;2022-07-29T06:25:26;100760.22;;;16.98;49.63
43621;BME280;29213;50.770;7.298;2022-07-29T06:27:54;100811.22;;;17.33;48.90
43621;BME280;29213;50.770;7.298;2022-07-29T06:30:19;100807.31;;;17.42;48.78
43621;BME280;29213;50.770;7.298;2022-07-29T06:32:45;100798.81;;;17.39;48.30
43621;BME280;29213;50.770;7.298;2022-07-29T06:35:10;100790.94;;;17.37;48.10
43621;BME280;29213;50.770;7.298;2022-07-29T06:37:35;100818.75;;;17.65;47.96
43621;BME280;29213;50.770;7.298;2022-07-29T06:40:01;100806.94;;;17.66;48.46
43621;BME280;29213;50.770;7.298;2022-07-29T06:42:45;100753.47;;;17.42;48.42
43621;BME280;29213;50.770;7.298;2022-07-29T06:45:11;100796.81;;;17.81;48.47
43621;BME280;29213;50.770;7.298;2022-07-29T06:47:37;100761.78;;;17.74;46.81
43621;BME280;29213;50.770;7.298;2022-07-29T06:50:03;100811.06;;;18.22;46.75
43621;BME280;29213;50.770;7.298;2022-07-29T06:52:29;100735.28;;;17.85;46.03
43621;BME280;29213;50.770;7.298;2022-07-29T06:54:54;100793.88;;;18.16;44.68
43621;BME280;29213;50.770;7.298;2022-07-29T06:57:20;100808.97;;;18.31;45.43
43621;BME280;29213;50.770;7.298;2022-07-29T06:59:46;100812.72;;;18.37;45.82
43621;BME280;29213;50.770;7.298;2022-07-29T07:02:11;100651.59;;;17.39;44.90
43621;BME280;29213;50.770;7.298;2022-07-29T07:04:39;100700.88;;;17.73;44.33
43621;BME280;29213;50.770;7.298;2022-07-29T07:07:04;100777.28;;;18.20;44.99
43621;BME280;29213;50.770;7.298;2022-07-29T07:09:32;100748.31;;;18.01;44.17
43621;BME280;29213;50.770;7.298;2022-07-29T07:11:58;100761.97;;;18.07;44.24
43621;BME280;29213;50.770;7.298;2022-07-29T07:14:23;100799.03;;;18.32;43.79
43621;BME280;29213;50.770;7.298;2022-07-29T07:16:51;100699.00;;;17.81;43.66
43621;BME280;29213;50.770;7.298;2022-07-29T07:19:17;100770.22;;;18.32;43.73
43621;BME280;29213;50.770;7.298;2022-07-29T07:21:44;100814.72;;;18.62;43.81
43621;BME280;29213;50.770;7.298;2022-07-29T07:24:09;100712.03;;;18.04;43.69
43621;BME280;29213;50.770;7.298;2022-07-29T07:26:35;100751.31;;;18.39;43.62
43621;BME280;29213;50.770;7.298;2022-07-29T07:29:00;100789.84;;;18.66;42.70
43621;BME280;29213;50.770;7.298;2022-07-29T07:31:26;100739.72;;;18.38;43.41
43621;BME280;29213;50.770;7.298;2022-07-29T07:33:51;100796.41;;;18.84;42.86
43621;BME280;29213;50.770;7.298;2022-07-29T07:36:18;100800.47;;;19.00;42.92
43621;BME280;29213;50.770;7.298;2022-07-29T07:38:44;100801.19;;;19.21;42.71
43621;BME280;29213;50.770;7.298;2022-07-29T07:41:09;100727.31;;;18.83;42.15
43621;BME280;29213;50.770;7.298;2022-07-29T07:43:34;100782.91;;;19.23;41.86
43621;BME280;29213;50.770;7.298;2022-07-29T07:46:00;100754.53;;;19.14;42.43
43621;BME280;29213;50.770;7.298;2022-07-29T07:48:25;100792.03;;;19.61;43.02
43621;BME280;29213;50.770;7.298;2022-07-29T07:50:51;100692.69;;;19.05;41.56
43621;BME280;29213;50.770;7.298;2022-07-29T07:53:16;100784.75;;;19.61;41.48
43621;BME280;29213;50.770;7.298;2022-07-29T07:55:42;100786.63;;;19.61;42.52
43621;BME280;29213;50.770;7.298;2022-07-29T07:58:08;100733.03;;;19.32;42.80
43621;BME280;29213;50.770;7.298;2022-07-29T08:00:34;100741.47;;;19.43;43.06
43621;BME280;29213;50.770;7.298;2022-07-29T08:02:59;100716.63;;;19.27;43.04
43621;BME280;29213;50.770;7.298;2022-07-29T08:05:25;100792.47;;;19.83;43.30
43621;BME280;29213;50.770;7.298;2022-07-29T08:07:50;100758.94;;;19.66;43.16
43621;BME280;29213;50.770;7.298;2022-07-29T08:10:18;100784.47;;;19.95;42.33
43621;BME280;29213;50.770;7.298;2022-07-29T08:13:05;100751.97;;;19.76;42.77
43621;BME280;29213;50.770;7.298;2022-07-29T08:15:31;100749.06;;;19.78;42.90
43621;BME280;29213;50.770;7.298;2022-07-29T08:17:57;100734.28;;;19.81;42.72
43621;BME280;29213;50.770;7.298;2022-07-29T08:20:22;100676.19;;;19.46;42.70
43621;BME280;29213;50.770;7.298;2022-07-29T08:22:47;100666.78;;;19.55;42.69
43621;BME280;29213;50.770;7.298;2022-07-29T08:25:13;100783.91;;;20.49;42.39
43621;BME280;29213;50.770;7.298;2022-07-29T08:27:38;100734.28;;;20.44;41.40
43621;BME280;29213;50.770;7.298;2022-07-29T08:30:04;100751.47;;;20.68;40.58
43621;BME280;29213;50.770;7.298;2022-07-29T08:32:30;100700.34;;;20.60;39.03
43621;BME280;29213;50.770;7.298;2022-07-29T08:34:56;100716.06;;;20.69;38.81
43621;BME280;29213;50.770;7.298;2022-07-29T08:37:22;100736.69;;;21.01;38.97
43621;BME280;29213;50.770;7.298;2022-07-29T08:39:47;100754.06;;;21.36;39.72
43621;BME280;29213;50.770;7.298;2022-07-29T08:42:13;100726.84;;;21.31;39.63
43621;BME280;29213;50.770;7.298;2022-07-29T08:44:39;100783.59;;;21.80;39.40
43621;BME280;29213;50.770;7.298;2022-07-29T08:47:05;100655.25;;;21.15;39.20
43621;BME280;29213;50.770;7.298;2022-07-29T08:49:33;100687.34;;;21.54;38.89
43621;BME280;29213;50.770;7.298;2022-07-29T08:52:00;100764.47;;;22.23;38.95
43621;BME280;29213;50.770;7.298;2022-07-29T08:54:27;100746.53;;;22.22;37.50
43621;BME280;29213;50.770;7.298;2022-07-29T08:56:53;100733.63;;;22.24;37.40
43621;BME280;29213;50.770;7.298;2022-07-29T08:59:20;100739.59;;;22.38;37.66
43621;BME280;29213;50.770;7.298;2022-07-29T09:01:46;100622.63;;;21.81;35.60
43621;BME280;29213;50.770;7.298;2022-07-29T09:04:13;100770.00;;;22.81;35.46
43621;BME280;29213;50.770;7.298;2022-07-29T09:06:45;100702.09;;;22.64;34.91
43621;BME280;29213;50.770;7.298;2022-07-29T09:09:11;100761.41;;;23.13;34.84
43621;BME280;29213;50.770;7.298;2022-07-29T09:11:39;100762.91;;;23.38;34.84
43621;BME280;29213;50.770;7.298;2022-07-29T09:14:05;100739.44;;;23.32;33.59
43621;BME280;29213;50.770;7.298;2022-07-29T09:16:50;100760.91;;;23.51;33.35
43621;BME280;29213;50.770;7.298;2022-07-29T09:19:36;100720.34;;;23.61;34.68
43621;BME280;29213;50.770;7.298;2022-07-29T09:22:06;100709.88;;;23.70;34.86
43621;BME280;29213;50.770;7.298;2022-07-29T09:24:46;100750.72;;;24.14;33.75
43621;BME280;29213;50.770;7.298;2022-07-29T09:27:25;100750.31;;;24.45;34.05
43621;BME280;29213;50.770;7.298;2022-07-29T09:29:59;100726.50;;;24.58;33.49
43621;BME280;29213;50.770;7.298;2022-07-29T09:32:25;100705.44;;;24.48;32.42
43621;BME280;29213;50.770;7.298;2022-07-29T09:37:40;100685.00;;;24.45;31.32
43621;BME280;29213;50.770;7.298;2022-07-29T09:40:26;100733.94;;;24.90;31.62
43621;BME280;29213;50.770;7.298;2022-07-29T09:42:52;100745.59;;;25.13;31.53
43621;BME280;29213;50.770;7.298;2022-07-29T09:45:33;100737.25;;;25.25;32.01
43621;BME280;29213;50.770;7.298;2022-07-29T09:48:18;100738.44;;;25.39;30.20
43621;BME280;29213;50.770;7.298;2022-07-29T09:50:45;100686.91;;;25.00;30.30
43621;BME280;29213;50.770;7.298;2022-07-29T09:53:12;100678.25;;;24.80;29.91
43621;BME280;29213;50.770;7.298;2022-07-29T09:55:54;100626.59;;;24.58;30.05
43621;BME280;29213;50.770;7.298;2022-07-29T09:58:21;100735.28;;;25.20;30.15
43621;BME280;29213;50.770;7.298;2022-07-29T10:00:47;100749.03;;;25.36;30.81
43621;BME280;29213;50.770;7.298;2022-07-29T10:03:14;100741.13;;;25.34;29.45
43621;BME280;29213;50.770;7.298;2022-07-29T10:05:40;100713.41;;;25.10;29.96
43621;BME280;29213;50.770;7.298;2022-07-29T10:08:07;100656.13;;;24.72;30.27
43621;BME280;29213;50.770;7.298;2022-07-29T10:10:38;100692.34;;;25.00;30.24
43621;BME280;29213;50.770;7.298;2022-07-29T10:13:10;100703.31;;;25.10;29.55
43621;BME280;29213;50.770;7.298;2022-07-29T10:15:38;100742.44;;;25.59;29.74
43621;BME280;29213;50.770;7.298;2022-07-29T10:18:06;100727.16;;;25.58;29.94
43621;BME280;29213;50.770;7.298;2022-07-29T10:20:32;100740.84;;;25.63;29.35
43621;BME280;29213;50.770;7.298;2022-07-29T10:22:57;100695.69;;;25.45;29.63
43621;BME280;29213;50.770;7.298;2022-07-29T10:25:24;100733.22;;;25.70;29.47
43621;BME280;29213;50.770;7.298;2022-07-29T10:27:50;100728.94;;;25.80;29.62
43621;BME280;29213;50.770;7.298;2022-07-29T10:30:17;100739.06;;;25.90;29.42
43621;BME280;29213;50.770;7.298;2022-07-29T10:33:12;100739.34;;;25.88;28.61
43621;BME280;29213;50.770;7.298;2022-07-29T10:36:04;100734.44;;;25.85;29.24
43621;BME280;29213;50.770;7.298;2022-07-29T10:38:51;100711.22;;;25.82;29.13
43621;BME280;29213;50.770;7.298;2022-07-29T10:44:21;100737.59;;;26.20;29.18
43621;BME280;29213;50.770;7.298;2022-07-29T10:46:48;100698.47;;;25.98;28.34
43621;BME280;29213;50.770;7.298;2022-07-29T10:49:24;100726.72;;;26.25;28.89
43621;BME280;29213;50.770;7.298;2022-07-29T10:52:05;100737.34;;;26.21;29.44
43621;BME280;29213;50.770;7.298;2022-07-29T11:00:21;100735.28;;;25.96;28.81
43621;BME280;29213;50.770;7.298;2022-07-29T11:05:19;100729.94;;;26.11;28.00
43621;BME280;29213;50.770;7.298;2022-07-29T11:10:39;100687.25;;;25.90;28.03
43621;BME280;29213;50.770;7.298;2022-07-29T11:13:05;100685.59;;;25.83;29.29
43621;BME280;29213;50.770;7.298;2022-07-29T11:15:54;100728.25;;;26.05;28.66
43621;BME280;29213;50.770;7.298;2022-07-29T11:18:19;100676.47;;;25.62;29.27
43621;BME280;29213;50.770;7.298;2022-07-29T11:20:47;100731.63;;;25.74;28.94
43621;BME280;29213;50.770;7.298;2022-07-29T11:23:25;100724.53;;;25.79;28.96
43621;BME280;29213;50.770;7.298;2022-07-29T11:28:50;100741.25;;;25.93;28.88
43621;BME280;29213;50.770;7.298;2022-07-29T11:31:42;100689.09;;;25.73;28.69
43621;BME280;29213;50.770;7.298;2022-07-29T11:34:24;100735.28;;;25.96;29.22
43621;BME280;29213;50.770;7.298;2022-07-29T11:39:35;100704.97;;;25.87;29.08
43621;BME280;29213;50.770;7.298;2022-07-29T11:47:35;100729.88;;;26.06;29.69
43621;BME280;29213;50.770;7.298;2022-07-29T11:50:03;100728.59;;;26.14;28.86
43621;BME280;29213;50.770;7.298;2022-07-29T11:52:39;100729.47;;;26.30;29.30
43621;BME280;29213;50.770;7.298;2022-07-29T11:55:19;100685.72;;;26.14;28.15
43621;BME280;29213;50.770;7.298;2022-07-29T11:57:51;100685.19;;;26.12;28.94
43621;BME280;29213;50.770;7.298;2022-07-29T12:00:38;100716.16;;;26.49;29.35
43621;BME280;29213;50.770;7.298;2022-07-29T12:03:07;100712.59;;;26.44;29.23
43621;BME280;29213;50.770;7.298;2022-07-29T12:05:38;100652.19;;;26.19;29.73
43621;BME280;29213;50.770;7.298;2022-07-29T12:08:16;100723.34;;;26.76;30.08
43621;BME280;29213;50.770;7.298;2022-07-29T12:10:44;100721.97;;;26.79;29.05
43621;BME280;29213;50.770;7.298;2022-07-29T12:13:13;100723.59;;;26.75;29.21
43621;BME280;29213;50.770;7.298;2022-07-29T12:15:39;100714.59;;;26.69;29.20
43621;BME280;29213;50.770;7.298;2022-07-29T12:18:13;100686.06;;;26.34;29.28
43621;BME280;29213;50.770;7.298;2022-07-29T12:20:40;100723.00;;;26.57;29.80
43621;BME280;29213;50.770;7.298;2022-07-29T12:23:09;100711.22;;;26.41;29.70
43621;BME280;29213;50.770;7.298;2022-07-29T12:25:37;100710.41;;;26.46;29.70
43621;BME280;29213;50.770;7.298;2022-07-29T12:28:07;100652.72;;;26.16;30.48
43621;BME280;29213;50.770;7.298;2022-07-29T12:35:42;100649.13;;;26.05;29.11
43621;BME280;29213;50.770;7.298;2022-07-29T12:38:10;100691.50;;;26.29;29.21
43621;BME280;29213;50.770;7.298;2022-07-29T12:40:36;100599.00;;;25.53;29.38
43621;BME280;29213;50.770;7.298;2022-07-29T12:43:17;100665.97;;;25.92;29.82
43621;BME280;29213;50.770;7.298;2022-07-29T12:45:46;100727.50;;;26.15;29.88
43621;BME280;29213;50.770;7.298;2022-07-29T12:48:12;100708.88;;;26.02;30.42
43621;BME280;29213;50.770;7.298;2022-07-29T12:50:59;100719.56;;;26.13;31.07
43621;BME280;29213;50.770;7.298;2022-07-29T12:53:25;100715.97;;;26.08;29.76
43621;BME280;29213;50.770;7.298;2022-07-29T12:55:52;100716.13;;;25.85;29.47
43621;BME280;29213;50.770;7.298;2022-07-29T12:58:38;100720.78;;;25.85;29.88
43621;BME280;29213;50.770;7.298;2022-07-29T13:01:15;100696.06;;;25.54;29.88
43621;BME280;29213;50.770;7.298;2022-07-29T13:04:02;100688.00;;;25.37;29.54
43621;BME280;29213;50.770;7.298;2022-07-29T13:06:39;100714.31;;;25.53;30.31
43621;BME280;29213;50.770;7.298;2022-07-29T13:11:42;100714.53;;;25.46;30.53
43621;BME280;29213;50.770;7.298;2022-07-29T13:14:09;100711.22;;;25.44;30.44
43621;BME280;29213;50.770;7.298;2022-07-29T13:16:36;100653.41;;;24.99;30.77
43621;BME280;29213;50.770;7.298;2022-07-29T13:19:04;100713.28;;;25.27;31.04
43621;BME280;29213;50.770;7.298;2022-07-29T13:21:30;100712.13;;;25.23;30.98
43621;BME280;29213;50.770;7.298;2022-07-29T13:23:55;100666.03;;;24.83;31.16
43621;BME280;29213;50.770;7.298;2022-07-29T13:26:21;100698.66;;;25.05;30.92
43621;BME280;29213;50.770;7.298;2022-07-29T13:28:46;100693.19;;;25.00;31.22
43621;BME280;29213;50.770;7.298;2022-07-29T13:31:12;100632.66;;;24.65;30.88
43621;BME280;29213;50.770;7.298;2022-07-29T13:33:37;100672.03;;;24.85;31.33
43621;BME280;29213;50.770;7.298;2022-07-29T13:36:03;100699.91;;;24.92;30.99
43621;BME280;29213;50.770;7.298;2022-07-29T13:38:28;100681.75;;;24.76;30.48
43621;BME280;29213;50.770;7.298;2022-07-29T13:40:53;100660.34;;;24.57;31.38
43621;BME280;29213;50.770;7.298;2022-07-29T13:43:19;100667.94;;;24.55;31.54
43621;BME280;29213;50.770;7.298;2022-07-29T13:45:44;100692.41;;;24.77;31.69
43621;BME280;29213;50.770;7.298;2022-07-29T13:48:09;100656.19;;;24.49;32.13